Time;durP1;ratioP1;P1;durP2;ratioP2;P2;SDS_P1;SDS_P2;PMS_P1;PMS_P2;Temp;Humidity;BMP_temperature;BMP_pressure;BME280_temperature;BME280_humidity;BME280_pressure;Samples;Min_cycle;Max_cycle;Signal;HPM_P1;HPM_P2
2022/08/02 00:01:25;;;;;;;0.93;0.60;;;11.90;99.90;;;;;;4718506;30;20056;-85
2022/08/02 00:03:51;;;;;;;3.28;0.73;;;12.30;99.90;;;;;;4718218;30;20056;-85
2022/08/02 00:06:17;;;;;;;1.20;0.60;;;12.40;99.90;;;;;;4716965;30;20053;-85
2022/08/02 00:08:43;;;;;;;1.38;0.50;;;11.80;99.90;;;;;;4717252;30;20131;-85
2022/08/02 00:11:08;;;;;;;0.98;0.63;;;11.90;99.90;;;;;;4716714;30;20053;-85
2022/08/02 00:13:37;;;;;;;2.20;0.73;;;12.60;99.90;;;;;;4718091;30;20057;-85
2022/08/02 00:16:06;;;;;;;1.48;0.65;;;12.60;99.90;;;;;;4716720;30;20121;-85
2022/08/02 00:18:32;;;;;;;2.33;0.80;;;11.90;99.90;;;;;;4716825;30;20060;-85
2022/08/02 00:20:58;;;;;;;3.15;0.70;;;11.90;99.90;;;;;;4716673;30;20113;-85
2022/08/02 00:23:23;;;;;;;1.20;0.80;;;11.80;99.90;;;;;;4717214;30;20057;-85
2022/08/02 00:25:49;;;;;;;1.42;0.80;;;11.80;99.90;;;;;;4718048;30;20045;-85
2022/08/02 00:28:15;;;;;;;3.00;0.70;;;11.80;99.90;;;;;;4716924;30;20081;-85
2022/08/02 00:30:41;;;;;;;2.42;0.90;;;11.80;99.90;;;;;;4716943;30;20127;-85
2022/08/02 00:33:13;;;;;;;3.72;0.90;;;11.80;99.90;;;;;;4716749;30;20484;-85
2022/08/02 00:35:39;;;;;;;2.20;0.98;;;11.70;99.90;;;;;;4716530;30;20057;-85
2022/08/02 00:38:05;;;;;;;1.52;0.60;;;12.20;99.90;;;;;;4718119;30;20128;-85
2022/08/02 00:40:31;;;;;;;1.90;0.80;;;11.70;99.90;;;;;;4717756;30;20045;-85
2022/08/02 00:43:06;;;;;;;1.83;0.63;;;11.70;99.90;;;;;;4716306;30;20508;-85
2022/08/02 00:45:33;;;;;;;1.30;0.70;;;11.70;99.90;;;;;;4716524;30;20056;-85
2022/08/02 00:48:00;;;;;;;3.03;0.90;;;11.70;99.90;;;;;;4716600;30;20044;-85
2022/08/02 00:50:26;;;;;;;2.13;0.70;;;11.70;99.90;;;;;;4716490;30;20140;-85
2022/08/02 00:52:52;;;;;;;2.40;0.80;;;11.70;99.90;;;;;;4716182;30;20114;-85
2022/08/02 00:55:19;;;;;;;3.88;0.90;;;11.90;99.90;;;;;;4716364;30;20061;-85
2022/08/02 00:57:45;;;;;;;2.40;0.70;;;11.60;99.90;;;;;;4716157;30;20068;-85
2022/08/02 01:00:11;;;;;;;1.25;0.70;;;11.80;99.90;;;;;;4715654;30;20811;-85
2022/08/02 01:02:37;;;;;;;1.45;0.60;;;11.60;99.90;;;;;;4716310;30;20132;-85
2022/08/02 01:05:04;;;;;;;0.98;0.60;;;11.80;99.90;;;;;;4716138;30;20140;-85
2022/08/02 01:07:30;;;;;;;0.80;0.68;;;11.60;99.90;;;;;;4716040;30;20114;-85
2022/08/02 01:09:56;;;;;;;2.95;0.85;;;11.60;99.90;;;;;;4717235;30;20131;-85
2022/08/02 01:12:22;;;;;;;2.70;1.05;;;11.50;99.90;;;;;;4717241;30;20128;-85
2022/08/02 01:14:51;;;;;;;4.65;1.00;;;11.50;99.90;;;;;;4716371;30;20615;-85
2022/08/02 01:17:23;;;;;;;0.70;0.60;;;11.60;99.90;;;;;;4716123;30;20057;-85
2022/08/02 01:20:11;;;;;;;2.08;0.75;;;11.40;99.90;;;;;;4715962;30;20091;-85
2022/08/02 01:23:07;;;;;;;2.72;0.90;;;11.40;99.90;;;;;;4716073;30;20518;-85
2022/08/02 01:25:52;;;;;;;2.13;0.73;;;11.30;99.90;;;;;;4717054;30;20048;-85
2022/08/02 01:28:24;;;;;;;2.55;0.80;;;11.50;99.90;;;;;;4715999;30;20049;-85
2022/08/02 01:30:57;;;;;;;1.27;0.80;;;11.50;99.90;;;;;;4701951;30;20053;-85
2022/08/02 01:33:27;;;;;;;3.55;0.80;;;11.30;99.90;;;;;;4715532;30;20061;-85
2022/08/02 01:35:57;;;;;;;1.67;1.00;;;11.80;99.90;;;;;;4716905;30;20053;-85
2022/08/02 01:38:32;;;;;;;1.70;0.93;;;11.20;99.90;;;;;;4716058;30;20053;-84
2022/08/02 01:41:01;;;;;;;1.77;0.90;;;11.30;99.90;;;;;;4715754;30;20522;-85
2022/08/02 01:43:29;;;;;;;2.00;0.90;;;11.70;99.90;;;;;;4716964;30;20486;-85
2022/08/02 01:45:56;;;;;;;1.60;0.90;;;11.20;99.90;;;;;;4715458;30;20162;-85
2022/08/02 01:48:24;;;;;;;1.70;0.90;;;11.20;99.90;;;;;;4715830;30;20392;-85
2022/08/02 01:50:50;;;;;;;2.30;0.70;;;11.20;99.90;;;;;;4716942;30;20053;-85
2022/08/02 01:53:19;;;;;;;1.27;0.73;;;11.20;99.90;;;;;;4716771;30;20131;-85
2022/08/02 01:55:53;;;;;;;1.00;0.60;;;11.20;99.90;;;;;;4700919;30;20160;-85
2022/08/02 01:58:23;;;;;;;1.30;0.60;;;11.20;99.90;;;;;;4718315;30;20041;-85
2022/08/02 02:00:52;;;;;;;3.58;0.90;;;11.10;99.90;;;;;;4719191;30;20508;-85
2022/08/02 02:03:20;;;;;;;2.20;0.80;;;11.80;99.90;;;;;;4719103;30;20053;-85
2022/08/02 02:05:50;;;;;;;1.35;0.70;;;11.20;99.90;;;;;;4718937;30;20606;-85
2022/08/02 02:08:23;;;;;;;1.80;0.75;;;11.10;99.90;;;;;;4718831;30;20104;-85
2022/08/02 02:10:50;;;;;;;2.65;0.80;;;11.00;99.90;;;;;;4720199;30;20063;-85
2022/08/02 02:13:18;;;;;;;3.25;0.70;;;11.00;99.90;;;;;;4718809;30;20053;-85
2022/08/02 02:15:46;;;;;;;0.85;0.65;;;11.00;99.90;;;;;;4718805;30;20202;-85
2022/08/02 02:18:25;;;;;;;1.45;0.80;;;11.00;99.90;;;;;;4718747;30;20144;-85
2022/08/02 02:20:52;;;;;;;1.48;0.90;;;10.90;99.90;;;;;;4718777;30;20061;-85
2022/08/02 02:23:18;;;;;;;0.98;0.52;;;10.90;99.90;;;;;;4719147;30;20102;-85
2022/08/02 02:25:44;;;;;;;1.98;0.60;;;10.90;99.90;;;;;;4718794;30;20088;-85
2022/08/02 02:28:21;;;;;;;1.10;0.68;;;10.90;99.90;;;;;;4718826;30;20060;-85
2022/08/02 02:30:52;;;;;;;1.75;0.77;;;10.90;99.90;;;;;;4718954;30;20057;-85
2022/08/02 02:33:21;;;;;;;1.60;0.70;;;10.80;99.90;;;;;;4718550;30;20053;-85
2022/08/02 02:35:51;;;;;;;2.85;0.80;;;10.80;99.90;;;;;;4704962;30;20124;-85
2022/08/02 02:38:19;;;;;;;2.70;0.90;;;10.90;99.90;;;;;;4719665;30;20504;-85
2022/08/02 02:40:47;;;;;;;1.10;0.75;;;10.80;99.90;;;;;;4719647;30;20060;-85
2022/08/02 02:43:20;;;;;;;2.08;0.90;;;11.30;99.90;;;;;;4718006;30;20065;-85
2022/08/02 02:45:46;;;;;;;2.92;0.80;;;10.90;99.90;;;;;;4718323;30;20526;-85
2022/08/02 02:48:14;;;;;;;3.22;1.00;;;10.90;99.90;;;;;;4718507;30;20041;-86
2022/08/02 02:50:41;;;;;;;1.40;0.70;;;10.90;99.90;;;;;;4718393;30;20057;-85
2022/08/02 02:53:09;;;;;;;3.42;0.80;;;10.90;99.90;;;;;;4719301;30;20049;-86
2022/08/02 02:55:35;;;;;;;1.65;0.77;;;11.00;99.90;;;;;;4717883;30;20554;-86
2022/08/02 02:58:02;;;;;;;1.40;0.60;;;11.30;99.90;;;;;;4719350;30;20092;-86
2022/08/02 03:03:15;;;;;;;1.23;0.63;;;10.90;99.90;;;;;;4718036;30;20068;-85
2022/08/02 03:05:40;;;;;;;2.70;0.70;;;10.90;99.90;;;;;;4703583;30;20064;-86
2022/08/02 03:08:07;;;;;;;2.05;0.90;;;11.50;99.90;;;;;;4717372;30;20049;-85
2022/08/02 03:10:36;;;;;;;1.15;0.70;;;11.00;99.90;;;;;;4702877;30;20114;-85
2022/08/02 03:13:03;;;;;;;1.15;0.70;;;10.80;99.90;;;;;;4717924;30;20515;-85
2022/08/02 03:15:32;;;;;;;2.67;0.80;;;11.40;99.90;;;;;;4717680;30;20522;-86
2022/08/02 03:17:57;;;;;;;2.80;1.10;;;11.30;99.90;;;;;;4717957;30;20052;-85
2022/08/02 03:20:29;;;;;;;5.05;1.10;;;10.90;99.90;;;;;;4718929;30;20102;-85
2022/08/02 03:22:54;;;;;;;1.65;0.93;;;10.80;99.90;;;;;;4717931;30;20052;-86
2022/08/02 03:25:22;;;;;;;2.13;0.75;;;11.10;99.90;;;;;;4718125;30;20076;-85
2022/08/02 03:27:48;;;;;;;2.25;0.90;;;10.80;99.90;;;;;;4718842;30;20404;-85
2022/08/02 03:30:16;;;;;;;1.50;0.90;;;10.80;99.90;;;;;;4718930;30;20057;-85
2022/08/02 03:32:45;;;;;;;2.13;1.02;;;10.80;99.90;;;;;;4717645;30;20412;-86
2022/08/02 03:35:14;;;;;;;1.42;0.93;;;10.80;99.90;;;;;;4717423;30;20589;-85
2022/08/02 03:37:40;;;;;;;3.85;1.13;;;11.30;99.90;;;;;;4718571;30;20069;-86
2022/08/02 03:40:11;;;;;;;1.73;0.82;;;10.80;99.90;;;;;;4718521;30;20096;-85
2022/08/02 03:42:39;;;;;;;1.88;1.17;;;10.90;99.90;;;;;;4718421;30;20065;-86
2022/08/02 03:45:08;;;;;;;2.42;0.88;;;11.10;99.90;;;;;;4718364;30;20068;-85
2022/08/02 03:47:34;;;;;;;1.88;0.88;;;10.90;99.90;;;;;;4718210;30;20049;-85
2022/08/02 03:50:01;;;;;;;2.90;0.98;;;11.70;99.90;;;;;;4717166;30;20053;-85
2022/08/02 03:52:30;;;;;;;1.40;1.00;;;10.90;99.90;;;;;;4717156;30;20418;-85
2022/08/02 03:54:56;;;;;;;2.90;1.20;;;10.90;99.90;;;;;;4718601;30;20064;-85
2022/08/02 03:57:25;;;;;;;2.22;1.10;;;10.90;99.90;;;;;;4716965;30;20049;-86
2022/08/02 03:59:51;;;;;;;2.85;0.80;;;11.20;99.90;;;;;;4702732;30;20068;-85
2022/08/02 04:02:17;;;;;;;3.03;0.85;;;11.20;99.90;;;;;;4717607;30;20053;-85
2022/08/02 04:04:42;;;;;;;5.90;1.20;;;11.00;99.90;;;;;;4717416;30;20144;-85
2022/08/02 04:07:08;;;;;;;2.70;0.82;;;11.00;99.90;;;;;;4716898;30;20500;-86
2022/08/02 04:09:34;;;;;;;1.20;0.80;;;11.10;99.90;;;;;;4718179;30;20056;-86
2022/08/02 04:12:00;;;;;;;2.15;1.00;;;11.00;99.90;;;;;;4716834;30;20500;-85
2022/08/02 04:14:26;;;;;;;2.00;1.13;;;11.90;99.90;;;;;;4717882;30;20095;-85
2022/08/02 04:17:08;;;;;;;2.45;0.90;;;11.10;99.90;;;;;;4717039;30;20085;-86
2022/08/02 04:19:46;;;;;;;3.17;0.90;;;10.90;99.90;;;;;;4716513;30;20053;-85
2022/08/02 04:22:25;;;;;;;1.42;0.90;;;11.10;99.90;;;;;;4716664;30;20053;-86
2022/08/02 04:24:57;;;;;;;3.72;1.10;;;11.10;99.90;;;;;;4717005;30;20072;-86
2022/08/02 04:27:24;;;;;;;2.17;0.93;;;11.50;99.90;;;;;;4718090;30;20103;-86
2022/08/02 04:29:51;;;;;;;1.50;1.00;;;11.50;99.90;;;;;;4717964;30;20106;-85
2022/08/02 04:32:20;;;;;;;3.47;1.05;;;11.40;99.90;;;;;;4717904;30;20053;-85
2022/08/02 04:34:47;;;;;;;1.17;0.70;;;11.30;99.90;;;;;;4716540;30;20123;-86
2022/08/02 04:37:18;;;;;;;1.15;0.85;;;11.30;99.90;;;;;;4717436;30;20049;-86
2022/08/02 04:39:44;;;;;;;1.33;0.60;;;11.30;99.90;;;;;;4716322;30;20511;-86
2022/08/02 04:42:19;;;;;;;1.05;0.80;;;11.10;99.90;;;;;;4716418;30;20092;-85
2022/08/02 04:44:49;;;;;;;1.08;0.60;;;11.40;99.90;;;;;;4716365;30;20147;-86
2022/08/02 04:47:15;;;;;;;3.22;0.60;;;11.40;99.90;;;;;;4716238;30;20103;-85
2022/08/02 04:49:43;;;;;;;0.80;0.60;;;11.80;99.90;;;;;;4716392;30;20099;-85
2022/08/02 04:52:18;;;;;;;1.58;0.77;;;12.20;99.90;;;;;;4716541;30;20192;-85
2022/08/02 04:54:43;;;;;;;1.92;0.88;;;12.30;99.90;;;;;;4717231;30;20049;-85
2022/08/02 04:59:54;;;;;;;1.10;0.60;;;11.80;99.90;;;;;;4716315;30;20053;-85
2022/08/02 05:02:22;;;;;;;0.75;0.60;;;12.30;99.90;;;;;;4716128;30;20542;-85
2022/08/02 05:04:50;;;;;;;0.95;0.60;;;11.90;99.90;;;;;;4701807;30;20515;-86
2022/08/02 05:07:16;;;;;;;1.60;0.65;;;12.00;99.90;;;;;;4717474;30;20053;-85
2022/08/02 05:09:42;;;;;;;2.50;0.70;;;12.20;99.90;;;;;;4717157;30;20493;-85
2022/08/02 05:12:10;;;;;;;1.45;0.60;;;12.10;99.90;;;;;;4717059;30;20195;-85
2022/08/02 05:14:41;;;;;;;2.20;0.75;;;12.20;99.90;;;;;;4715887;30;20061;-86
2022/08/02 05:17:07;;;;;;;1.17;0.90;;;12.40;99.90;;;;;;4715738;30;20526;-86
2022/08/02 05:19:36;;;;;;;2.15;0.70;;;12.50;99.90;;;;;;4715785;30;20061;-86
2022/08/02 05:22:04;;;;;;;3.28;0.60;;;12.60;99.90;;;;;;4715779;30;20056;-85
2022/08/02 05:24:33;;;;;;;3.00;1.10;;;12.70;99.90;;;;;;4716924;30;20140;-86
2022/08/02 05:26:59;;;;;;;3.90;1.10;;;12.80;99.90;;;;;;4717090;30;20056;-86
2022/08/02 05:29:25;;;;;;;1.70;0.80;;;13.30;99.90;;;;;;4717044;30;20479;-86
2022/08/02 05:31:53;;;;;;;2.65;0.90;;;13.10;99.90;;;;;;4716508;30;20049;-86
2022/08/02 05:34:24;;;;;;;1.33;0.82;;;13.20;99.90;;;;;;4716676;30;20049;-86
2022/08/02 05:36:50;;;;;;;2.17;0.93;;;13.70;99.90;;;;;;4717085;30;20049;-86
2022/08/02 05:39:24;;;;;;;0.90;0.70;;;13.50;99.90;;;;;;4717202;30;20045;-86
2022/08/02 05:41:53;;;;;;;2.97;0.70;;;13.70;99.90;;;;;;4715259;30;20158;-86
2022/08/02 05:44:21;;;;;;;2.67;0.70;;;13.80;99.90;;;;;;4715666;30;20105;-86
2022/08/02 05:46:55;;;;;;;2.33;0.80;;;14.00;99.90;;;;;;4715579;30;20063;-86
2022/08/02 05:49:24;;;;;;;1.10;0.75;;;14.10;99.90;;;;;;4715961;30;20059;-85
2022/08/02 05:52:25;;;;;;;1.95;0.77;;;14.10;99.90;;;;;;4715734;30;20096;-86
2022/08/02 05:55:12;;;;;;;2.30;1.10;;;14.00;99.90;;;;;;4682884;30;20065;-86
2022/08/02 05:57:58;;;;;;;1.85;0.88;;;14.20;99.90;;;;;;4668778;30;20136;-86
2022/08/02 06:00:32;;;;;;;0.95;0.70;;;14.30;99.90;;;;;;4682909;30;20072;-86
2022/08/02 06:03:29;;;;;;;3.78;0.70;;;14.50;99.90;;;;;;4683159;30;20148;-86
2022/08/02 06:06:03;;;;;;;0.68;0.60;;;14.60;99.90;;;;;;4678500;30;20057;-86
2022/08/02 06:08:41;;;;;;;1.80;0.68;;;14.80;99.90;;;;;;4682913;30;20432;-86
2022/08/02 06:11:13;;;;;;;1.65;0.75;;;14.80;99.90;;;;;;4696645;30;20608;-86
2022/08/02 06:14:06;;;;;;;4.13;0.75;;;15.00;99.90;;;;;;4682569;30;20065;-86
2022/08/02 06:16:40;;;;;;;2.20;0.77;;;15.10;99.90;;;;;;4682264;30;20148;-86
2022/08/02 06:19:06;;;;;;;1.63;0.63;;;15.30;99.90;;;;;;4697112;30;20080;-86
2022/08/02 06:22:13;;;;;;;2.45;0.82;;;15.40;99.90;;;;;;4697137;30;20053;-86
2022/08/02 06:24:25;;;;;;;1.63;0.70;;;15.60;99.90;;;;;;4682446;30;20057;-87
2022/08/02 06:26:56;;;;;;;0.60;0.57;;;15.70;99.90;;;;;;4683054;30;20093;-86
2022/08/02 06:29:55;;;;;;;3.40;0.80;;;15.90;99.90;;;;;;4699809;30;20057;-86
2022/08/02 06:32:35;;;;;;;0.90;0.60;;;16.10;99.90;;;;;;4715368;30;20057;-86
2022/08/02 06:35:05;;;;;;;4.60;0.70;;;16.30;99.90;;;;;;4716712;30;20060;-86
2022/08/02 06:37:47;;;;;;;2.28;0.70;;;16.40;99.90;;;;;;4715813;30;20152;-87
2022/08/02 06:40:43;;;;;;;1.25;0.55;;;16.60;99.90;;;;;;4716294;30;20479;-86
2022/08/02 06:43:27;;;;;;;1.20;0.68;;;16.70;99.90;;;;;;4697639;30;20136;-86
2022/08/02 06:53:43;;;;;;;0.50;0.40;;;17.20;99.90;;;;;;4700004;30;20115;-86
2022/08/02 06:56:24;;;;;;;3.05;0.63;;;17.20;99.90;;;;;;4685293;30;20060;-87
2022/08/02 06:58:50;;;;;;;2.45;0.50;;;17.40;99.90;;;;;;4685153;30;20633;-86
2022/08/02 07:01:18;;;;;;;3.30;0.70;;;17.70;99.90;;;;;;4685581;30;20053;-86
2022/08/02 07:03:44;;;;;;;1.52;0.52;;;17.80;99.90;;;;;;4685437;30;20093;-86
2022/08/02 07:06:19;;;;;;;3.30;0.75;;;18.00;99.90;;;;;;4685569;30;20081;-86
2022/08/02 07:08:45;;;;;;;1.52;0.70;;;18.10;99.90;;;;;;4685025;30;20053;-86
2022/08/02 07:11:23;;;;;;;2.30;0.50;;;18.30;99.90;;;;;;4670527;30;20066;-86
2022/08/02 07:13:54;;;;;;;1.02;0.50;;;18.50;99.90;;;;;;4685014;30;20524;-86
2022/08/02 07:16:23;;;;;;;2.88;0.60;;;18.70;99.90;;;;;;4699648;30;20147;-87
2022/08/02 07:19:04;;;;;;;7.90;1.05;;;18.80;99.90;;;;;;4685166;30;20069;-86
2022/08/02 07:21:33;;;;;;;0.80;0.43;;;19.00;99.90;;;;;;4717611;30;20057;-86
2022/08/02 07:24:05;;;;;;;0.85;0.60;;;19.10;99.90;;;;;;4719203;30;20114;-86
2022/08/02 07:26:34;;;;;;;2.47;0.80;;;19.00;99.90;;;;;;4703521;30;20056;-86
2022/08/02 07:29:10;;;;;;;1.88;0.55;;;19.30;99.90;;;;;;4717725;30;20053;-86
2022/08/02 07:31:36;;;;;;;2.33;0.50;;;19.30;99.90;;;;;;4703016;30;20061;-86
2022/08/02 07:34:05;;;;;;;2.30;0.43;;;19.40;99.90;;;;;;4717671;30;20446;-86
2022/08/02 07:36:33;;;;;;;2.88;0.50;;;19.50;99.90;;;;;;4717627;30;20053;-86
2022/08/02 07:39:10;;;;;;;0.55;0.30;;;19.60;99.90;;;;;;4717700;30;20145;-86
2022/08/02 07:41:39;;;;;;;1.55;0.30;;;19.80;99.90;;;;;;4717164;30;20092;-86
2022/08/02 07:44:05;;;;;;;0.68;0.40;;;20.00;99.90;;;;;;4702691;30;20096;-86
2022/08/02 07:46:34;;;;;;;0.55;0.38;;;20.20;99.90;;;;;;4718768;30;20057;-86
2022/08/02 07:49:05;;;;;;;1.05;0.30;;;20.30;99.90;;;;;;4717651;30;20064;-86
2022/08/02 07:51:36;;;;;;;2.22;0.45;;;20.70;99.90;;;;;;4718427;30;20052;-86
2022/08/02 07:54:09;;;;;;;0.65;0.40;;;20.70;99.90;;;;;;4702820;30;20061;-86
2022/08/02 07:56:38;;;;;;;1.13;0.20;;;20.90;99.90;;;;;;4716795;30;20132;-87
2022/08/02 07:59:09;;;;;;;1.20;0.38;;;21.10;99.90;;;;;;4718479;30;20049;-86
2022/08/02 08:01:41;;;;;;;1.30;0.30;;;21.00;99.90;;;;;;4718293;30;20049;-86
2022/08/02 08:04:18;;;;;;;2.65;0.40;;;21.30;99.90;;;;;;4718271;30;20095;-87
2022/08/02 08:06:55;;;;;;;0.38;0.20;;;21.40;99.90;;;;;;4702882;30;20049;-87
2022/08/02 08:09:21;;;;;;;0.88;0.30;;;21.80;99.90;;;;;;4702746;30;20061;-86
2022/08/02 08:11:47;;;;;;;0.63;0.20;;;21.80;99.90;;;;;;4717206;30;20449;-87
2022/08/02 08:21:37;;;;;;;0.93;0.40;;;22.20;99.90;;;;;;4718411;30;20064;-87
2022/08/02 08:24:09;;;;;;;1.20;0.40;;;22.50;99.90;;;;;;4702667;30;20085;-86
2022/08/02 08:26:38;;;;;;;0.73;0.30;;;22.60;99.90;;;;;;4716783;30;20064;-87
2022/08/02 08:29:07;;;;;;;1.10;0.25;;;22.70;99.90;;;;;;4717107;30;20470;-86
2022/08/02 08:31:36;;;;;;;1.23;0.30;;;22.80;99.90;;;;;;4701633;30;20057;-86
2022/08/02 08:34:03;;;;;;;1.35;0.20;;;22.90;99.30;;;;;;4717909;30;20056;-86
2022/08/02 08:36:31;;;;;;;0.60;0.40;;;23.00;99.90;;;;;;4702378;30;20048;-86
2022/08/02 08:39:02;;;;;;;0.90;0.25;;;23.00;98.60;;;;;;4717945;30;20437;-87
2022/08/02 08:41:28;;;;;;;0.65;0.20;;;23.20;99.80;;;;;;4716402;30;20139;-86
2022/08/02 08:43:58;;;;;;;0.55;0.10;;;23.20;99.40;;;;;;4717856;30;20583;-86
2022/08/02 08:46:28;;;;;;;0.20;0.15;;;23.30;98.20;;;;;;4716445;30;20068;-85
2022/08/02 08:49:18;;;;;;;1.70;0.30;;;23.50;98.60;;;;;;4701930;30;20057;-87
2022/08/02 08:51:48;;;;;;;0.55;0.13;;;23.60;96.70;;;;;;4683503;30;20097;-86
2022/08/02 08:54:16;;;;;;;0.45;0.20;;;23.50;97.50;;;;;;4697983;30;20109;-86
2022/08/02 08:56:44;;;;;;;0.47;0.20;;;23.50;96.60;;;;;;4683186;30;20073;-86
2022/08/02 08:59:17;;;;;;;1.75;0.30;;;23.60;96.40;;;;;;4698046;30;20057;-86
2022/08/02 09:01:47;;;;;;;1.70;0.30;;;23.70;96.70;;;;;;4697959;30;20045;-86
2022/08/02 09:04:13;;;;;;;0.32;0.20;;;23.70;95.20;;;;;;4683737;30;20113;-86
2022/08/02 09:06:39;;;;;;;0.95;0.10;;;23.70;95.60;;;;;;4682789;30;20461;-86
2022/08/02 09:09:05;;;;;;;0.93;0.20;;;23.80;95.80;;;;;;4683407;30;20101;-87
2022/08/02 09:11:30;;;;;;;0.75;0.20;;;23.90;95.00;;;;;;4697762;30;20165;-86
2022/08/02 09:13:59;;;;;;;0.65;0.20;;;24.00;95.60;;;;;;4683580;30;20053;-86
2022/08/02 09:16:33;;;;;;;0.65;0.13;;;24.10;96.60;;;;;;4683454;30;20064;-86
2022/08/02 09:19:16;;;;;;;1.45;0.17;;;24.20;96.00;;;;;;4698020;30;20102;-86
2022/08/02 09:21:45;;;;;;;;;;;24.40;94.50;;;;;;4683960;30;20158;-86
2022/08/02 09:24:24;;;;;;;0.40;0.20;;;24.60;94.60;;;;;;4683616;30;19997;-87
2022/08/02 09:26:51;;;;;;;2.20;0.20;;;24.80;95.00;;;;;;4683285;30;20095;-86
2022/08/02 09:29:20;;;;;;;2.35;0.30;;;25.00;95.90;;;;;;4710900;30;20523;-86
2022/08/02 09:31:46;;;;;;;0.93;0.30;;;25.10;93.40;;;;;;4716089;30;20049;-87
2022/08/02 09:34:12;;;;;;;0.85;0.20;;;25.20;94.80;;;;;;4717081;30;20065;-86
2022/08/02 09:36:44;;;;;;;1.35;0.20;;;25.30;93.80;;;;;;4715978;30;20064;-86
2022/08/02 09:39:14;;;;;;;0.30;0.20;;;25.50;93.00;;;;;;4716157;30;20103;-87
2022/08/02 09:41:45;;;;;;;0.20;0.20;;;25.60;94.30;;;;;;4715325;30;20488;-87
2022/08/02 09:44:20;;;;;;;0.50;0.20;;;25.80;93.10;;;;;;4715844;30;20119;-87
2022/08/02 09:46:58;;;;;;;1.23;0.35;;;25.90;93.00;;;;;;4715939;30;20401;-86
2022/08/02 09:49:27;;;;;;;1.10;0.30;;;25.90;92.70;;;;;;4717007;30;20048;-86
2022/08/02 09:52:06;;;;;;;0.40;0.20;;;25.90;93.00;;;;;;4715651;30;20118;-87
2022/08/02 09:54:51;;;;;;;;;;;;;;;;;;;;;
2022/08/02 09:57:37;;;;;;;1.35;0.30;;;25.80;94.00;;;;;;4716929;30;20135;-86
2022/08/02 10:00:25;;;;;;;2.47;0.30;;;25.70;94.00;;;;;;4715898;30;20057;-87
2022/08/02 10:03:20;;;;;;;2.20;0.40;;;25.90;93.70;;;;;;4716875;30;20049;-87
2022/08/02 10:05:48;;;;;;;1.08;0.30;;;25.80;93.80;;;;;;4715923;30;20131;-86
2022/08/02 10:08:17;;;;;;;0.57;0.20;;;25.90;94.50;;;;;;4716112;30;20203;-86
2022/08/02 10:10:59;;;;;;;1.13;0.30;;;26.10;94.80;;;;;;4715651;30;20148;-87
2022/08/02 10:13:37;;;;;;;0.45;0.30;;;26.20;95.00;;;;;;4715542;30;20397;-86
2022/08/02 10:16:41;;;;;;;1.00;0.38;;;26.40;93.60;;;;;;4716768;30;20492;-86
2022/08/02 10:19:15;;;;;;;0.55;0.30;;;26.50;94.10;;;;;;4717818;30;20519;-86
2022/08/02 10:21:50;;;;;;;1.85;0.30;;;26.70;93.70;;;;;;4718784;30;20057;-85
2022/08/02 10:24:21;;;;;;;2.90;0.50;;;26.90;94.20;;;;;;4718682;30;20072;-86
2022/08/02 10:26:53;;;;;;;0.55;0.30;;;27.00;92.60;;;;;;4720098;30;20132;-86
2022/08/02 10:29:37;;;;;;;0.57;0.30;;;27.00;93.50;;;;;;4719936;30;20451;-86
2022/08/02 10:32:20;;;;;;;2.65;0.38;;;26.90;93.00;;;;;;4718768;30;20115;-86
2022/08/02 10:34:54;;;;;;;;;;;27.00;92.30;;;;;;4718980;30;20048;-86
2022/08/02 10:37:21;;;;;;;1.83;0.45;;;27.20;94.10;;;;;;4720335;30;20337;-86
2022/08/02 10:39:55;;;;;;;1.95;0.45;;;27.30;92.80;;;;;;4718591;30;20132;-86
2022/08/02 10:42:51;;;;;;;1.92;0.50;;;27.30;94.00;;;;;;4719692;30;20074;-87
2022/08/02 10:45:21;;;;;;;1.02;0.50;;;27.30;93.80;;;;;;4718963;30;20068;-87
2022/08/02 10:48:04;;;;;;;0.93;0.40;;;27.40;94.50;;;;;;4704574;30;20141;-86
2022/08/02 10:50:45;;;;;;;1.70;0.47;;;27.30;93.90;;;;;;4719494;30;20053;-87
2022/08/02 10:53:30;;;;;;;2.00;0.60;;;27.30;93.40;;;;;;4718176;30;20483;-86
2022/08/02 10:55:58;;;;;;;1.35;0.50;;;27.30;93.40;;;;;;4718347;30;20053;-86
2022/08/02 10:58:31;;;;;;;0.65;0.50;;;27.30;93.50;;;;;;4718438;30;20142;-87
2022/08/02 11:01:24;;;;;;;2.05;0.60;;;27.60;94.10;;;;;;4703975;30;20059;-86
2022/08/02 11:03:57;;;;;;;1.70;0.50;;;27.80;94.40;;;;;;4717992;30;20052;-86
2022/08/02 11:06:30;;;;;;;1.42;0.40;;;27.90;93.40;;;;;;4718974;30;20060;-87
2022/08/02 11:09:28;;;;;;;0.80;0.63;;;27.90;93.90;;;;;;4719244;30;20589;-87
2022/08/02 11:12:02;;;;;;;1.52;0.70;;;28.00;93.20;;;;;;4685128;30;20076;-86
2022/08/02 11:14:31;;;;;;;1.30;0.70;;;28.00;92.90;;;;;;4685140;30;20058;-86
2022/08/02 11:16:56;;;;;;;1.40;0.52;;;27.80;93.50;;;;;;4685133;30;20452;-85
2022/08/02 11:19:27;;;;;;;1.45;0.50;;;27.90;91.80;;;;;;4699748;30;20060;-86
2022/08/02 11:22:11;;;;;;;1.45;0.60;;;27.80;92.30;;;;;;4685096;30;20092;-87
2022/08/02 11:24:40;;;;;;;2.80;0.57;;;28.10;92.50;;;;;;4685342;30;20151;-86
2022/08/02 11:27:28;;;;;;;1.13;0.50;;;28.20;92.50;;;;;;4699529;30;20107;-86
2022/08/02 11:29:54;;;;;;;1.50;0.70;;;28.00;92.10;;;;;;4698540;30;20061;-85
2022/08/02 11:32:22;;;;;;;1.83;0.70;;;27.80;93.00;;;;;;4699699;30;20057;-86
2022/08/02 11:34:50;;;;;;;2.88;0.70;;;27.70;92.20;;;;;;4684850;30;20140;-86
2022/08/02 11:37:36;;;;;;;1.83;0.50;;;27.70;91.00;;;;;;4699564;30;20455;-86
2022/08/02 11:40:07;;;;;;;0.85;0.50;;;27.50;92.00;;;;;;4699461;30;20049;-86
2022/08/02 11:42:43;;;;;;;5.75;0.60;;;27.50;92.30;;;;;;4699136;30;20053;-86
2022/08/02 11:45:11;;;;;;;1.92;0.50;;;27.40;92.60;;;;;;4699211;30;20056;-85
2022/08/02 11:47:55;;;;;;;0.90;0.70;;;27.40;93.30;;;;;;4685707;30;20145;-85
2022/08/02 11:50:31;;;;;;;4.93;1.33;;;27.40;92.40;;;;;;4718950;30;20041;-86
2022/08/02 11:52:57;;;;;;;2.50;0.70;;;27.20;92.80;;;;;;4717603;30;20049;-86
2022/08/02 11:55:32;;;;;;;2.15;0.47;;;27.30;93.30;;;;;;4717342;30;20130;-85
2022/08/02 11:57:58;;;;;;;;;;;27.40;92.80;;;;;;4717728;30;20087;-85
2022/08/02 12:00:24;;;;;;;1.13;0.50;;;27.40;93.60;;;;;;4717354;30;19986;-85
2022/08/02 12:02:51;;;;;;;1.17;0.50;;;27.40;93.40;;;;;;4717621;30;20092;-85
2022/08/02 12:05:22;;;;;;;1.88;0.50;;;27.50;93.30;;;;;;4717443;30;20090;-86
2022/08/02 12:07:52;;;;;;;1.42;0.60;;;27.70;93.40;;;;;;4718546;30;20136;-85
2022/08/02 12:10:21;;;;;;;1.38;0.60;;;27.70;93.10;;;;;;4717566;30;20122;-86
2022/08/02 12:13:00;;;;;;;2.15;0.60;;;27.60;92.10;;;;;;4718423;30;20060;-85
2022/08/02 12:15:40;;;;;;;1.65;0.60;;;27.60;93.50;;;;;;4718238;30;20136;-84
2022/08/02 12:21:03;;;;;;;0.88;0.63;;;27.40;93.70;;;;;;4716989;30;20053;-84
2022/08/02 12:23:29;;;;;;;3.25;0.95;;;27.10;94.30;;;;;;4717196;30;20057;-84
2022/08/02 12:26:05;;;;;;;2.22;0.80;;;27.10;94.00;;;;;;4718109;30;20056;-85
2022/08/02 12:28:39;;;;;;;1.25;0.70;;;27.00;94.40;;;;;;4717956;30;20102;-84
2022/08/02 12:31:12;;;;;;;1.25;0.52;;;26.90;94.50;;;;;;4716850;30;20404;-85
2022/08/02 12:33:52;;;;;;;1.60;0.50;;;26.80;94.30;;;;;;4702237;30;20479;-84
2022/08/02 12:36:22;;;;;;;2.15;0.60;;;26.80;94.90;;;;;;4718167;30;20454;-84
2022/08/02 12:38:56;;;;;;;1.83;0.60;;;26.70;94.50;;;;;;4716547;30;20077;-84
2022/08/02 12:41:22;;;;;;;1.58;0.90;;;26.60;94.70;;;;;;4717826;30;20053;-84
2022/08/02 12:43:49;;;;;;;3.13;1.23;;;26.60;95.10;;;;;;4716497;30;20149;-84
2022/08/02 12:46:17;;;;;;;3.67;0.80;;;26.40;95.40;;;;;;4717552;30;20056;-84
2022/08/02 12:48:43;;;;;;;1.50;1.00;;;26.30;95.80;;;;;;4716382;30;20052;-84
2022/08/02 12:51:22;;;;;;;2.22;1.25;;;26.30;95.90;;;;;;4716263;30;20057;-84
2022/08/02 12:53:49;;;;;;;1.83;1.10;;;26.20;95.80;;;;;;4716448;30;20057;-83
2022/08/02 12:56:35;;;;;;;2.15;0.90;;;26.10;96.10;;;;;;4702011;30;20195;-83
2022/08/02 12:59:01;;;;;;;1.50;0.70;;;26.10;96.60;;;;;;4717455;30;20061;-83
2022/08/02 13:01:27;;;;;;;0.95;0.60;;;26.10;96.60;;;;;;4717544;30;20049;-84
2022/08/02 13:03:54;;;;;;;1.92;0.70;;;26.10;96.50;;;;;;4716298;30;20122;-84
2022/08/02 13:06:20;;;;;;;3.25;0.70;;;26.20;96.80;;;;;;4717304;30;20055;-83
2022/08/02 13:08:47;;;;;;;1.67;0.60;;;26.20;96.30;;;;;;4716360;30;20049;-83
2022/08/02 13:11:13;;;;;;;1.83;0.70;;;26.20;96.30;;;;;;4716407;30;20053;-83
2022/08/02 13:13:41;;;;;;;1.65;0.75;;;26.40;96.50;;;;;;4716191;30;20060;-83
2022/08/02 13:16:09;;;;;;;2.40;0.75;;;26.20;96.60;;;;;;4716204;30;20053;-83
2022/08/02 13:18:35;;;;;;;1.83;0.90;;;26.20;96.40;;;;;;4717027;30;20451;-83
2022/08/02 13:21:03;;;;;;;1.33;0.70;;;26.20;96.80;;;;;;4716968;30;20107;-83
2022/08/02 13:23:32;;;;;;;1.58;0.80;;;26.10;97.60;;;;;;4717153;30;20057;-83
2022/08/02 13:25:57;;;;;;;2.05;0.80;;;26.10;97.70;;;;;;4716035;30;20055;-82
2022/08/02 13:28:23;;;;;;;1.55;0.95;;;26.10;98.40;;;;;;4717101;30;20135;-83
2022/08/02 13:30:49;;;;;;;3.70;0.95;;;26.00;97.90;;;;;;4716336;30;20060;-83
2022/08/02 13:33:16;;;;;;;1.95;0.90;;;26.00;98.70;;;;;;4701425;30;20484;-83